sensor_id;sensor_type;location;lat;lon;timestamp;P1;durP1;ratioP1;P2;durP2;ratioP2
2972;SDS011;1496;51.404;7.232;2024-01-30T00:02:15;10.97;;;6.90;;
2972;SDS011;1496;51.404;7.232;2024-01-30T00:04:43;13.50;;;8.40;;
2972;SDS011;1496;51.404;7.232;2024-01-30T00:07:09;16.00;;;7.80;;
2972;SDS011;1496;51.404;7.232;2024-01-30T00:09:35;13.43;;;6.13;;
2972;SDS011;1496;51.404;7.232;2024-01-30T00:12:06;11.07;;;7.63;;
2972;SDS011;1496;51.404;7.232;2024-01-30T00:14:32;12.33;;;7.37;;
2972;SDS011;1496;51.404;7.232;2024-01-30T00:17:01;13.03;;;7.60;;
2972;SDS011;1496;51.404;7.232;2024-01-30T00:19:27;11.57;;;7.47;;
2972;SDS011;1496;51.404;7.232;2024-01-30T00:21:53;13.93;;;8.20;;
2972;SDS011;1496;51.404;7.232;2024-01-30T00:24:19;19.87;;;7.20;;
2972;SDS011;1496;51.404;7.232;2024-01-30T00:26:45;10.63;;;7.30;;
2972;SDS011;1496;51.404;7.232;2024-01-30T00:29:10;11.93;;;7.50;;
2972;SDS011;1496;51.404;7.232;2024-01-30T00:31:36;12.53;;;7.57;;
2972;SDS011;1496;51.404;7.232;2024-01-30T00:34:02;12.17;;;7.47;;
2972;SDS011;1496;51.404;7.232;2024-01-30T00:36:28;11.73;;;8.43;;
2972;SDS011;1496;51.404;7.232;2024-01-30T00:38:55;15.00;;;7.70;;
2972;SDS011;1496;51.404;7.232;2024-01-30T00:41:20;11.40;;;7.43;;
2972;SDS011;1496;51.404;7.232;2024-01-30T00:43:46;14.53;;;7.40;;
2972;SDS011;1496;51.404;7.232;2024-01-30T00:46:12;15.33;;;8.00;;
2972;SDS011;1496;51.404;7.232;2024-01-30T00:48:37;10.23;;;7.67;;
2972;SDS011;1496;51.404;7.232;2024-01-30T00:51:03;14.43;;;8.20;;
2972;SDS011;1496;51.404;7.232;2024-01-30T00:53:28;13.40;;;7.40;;
2972;SDS011;1496;51.404;7.232;2024-01-30T00:55:54;16.53;;;7.73;;
2972;SDS011;1496;51.404;7.232;2024-01-30T00:58:20;11.30;;;8.67;;
2972;SDS011;1496;51.404;7.232;2024-01-30T01:00:45;13.13;;;7.33;;
2972;SDS011;1496;51.404;7.232;2024-01-30T01:03:11;12.17;;;7.43;;
2972;SDS011;1496;51.404;7.232;2024-01-30T01:05:39;15.03;;;8.20;;
2972;SDS011;1496;51.404;7.232;2024-01-30T01:08:04;11.43;;;7.20;;
2972;SDS011;1496;51.404;7.232;2024-01-30T01:10:30;12.83;;;8.27;;
2972;SDS011;1496;51.404;7.232;2024-01-30T01:12:56;13.40;;;7.20;;
2972;SDS011;1496;51.404;7.232;2024-01-30T01:15:21;17.00;;;8.00;;
2972;SDS011;1496;51.404;7.232;2024-01-30T01:17:47;11.87;;;7.40;;
2972;SDS011;1496;51.404;7.232;2024-01-30T01:20:14;10.90;;;7.90;;
2972;SDS011;1496;51.404;7.232;2024-01-30T01:22:52;13.50;;;7.93;;
2972;SDS011;1496;51.404;7.232;2024-01-30T01:25:18;17.23;;;9.20;;
2972;SDS011;1496;51.404;7.232;2024-01-30T01:27:43;9.80;;;7.23;;
2972;SDS011;1496;51.404;7.232;2024-01-30T01:30:16;10.07;;;7.20;;
2972;SDS011;1496;51.404;7.232;2024-01-30T01:32:50;12.00;;;7.23;;
2972;SDS011;1496;51.404;7.232;2024-01-30T01:35:24;11.43;;;8.10;;
2972;SDS011;1496;51.404;7.232;2024-01-30T01:37:53;11.60;;;8.27;;
2972;SDS011;1496;51.404;7.232;2024-01-30T01:40:24;12.87;;;8.67;;
2972;SDS011;1496;51.404;7.232;2024-01-30T01:42:50;12.70;;;8.27;;
2972;SDS011;1496;51.404;7.232;2024-01-30T01:45:19;11.33;;;7.00;;
2972;SDS011;1496;51.404;7.232;2024-01-30T01:47:47;22.90;;;7.70;;
2972;SDS011;1496;51.404;7.232;2024-01-30T01:50:15;16.93;;;8.67;;
2972;SDS011;1496;51.404;7.232;2024-01-30T01:52:45;11.07;;;7.13;;
2972;SDS011;1496;51.404;7.232;2024-01-30T01:55:12;11.57;;;8.27;;
2972;SDS011;1496;51.404;7.232;2024-01-30T01:57:39;11.30;;;8.43;;
2972;SDS011;1496;51.404;7.232;2024-01-30T02:00:06;11.07;;;6.73;;
2972;SDS011;1496;51.404;7.232;2024-01-30T02:02:35;9.47;;;7.50;;
2972;SDS011;1496;51.404;7.232;2024-01-30T02:05:01;10.83;;;7.60;;
2972;SDS011;1496;51.404;7.232;2024-01-30T02:07:28;14.83;;;8.13;;
2972;SDS011;1496;51.404;7.232;2024-01-30T02:09:54;12.83;;;8.03;;
2972;SDS011;1496;51.404;7.232;2024-01-30T02:12:20;10.80;;;7.70;;
2972;SDS011;1496;51.404;7.232;2024-01-30T02:14:46;11.37;;;7.23;;
2972;SDS011;1496;51.404;7.232;2024-01-30T02:17:12;14.83;;;7.73;;
2972;SDS011;1496;51.404;7.232;2024-01-30T02:19:39;11.03;;;7.70;;
2972;SDS011;1496;51.404;7.232;2024-01-30T02:22:04;9.93;;;7.53;;
2972;SDS011;1496;51.404;7.232;2024-01-30T02:24:31;20.70;;;8.33;;
2972;SDS011;1496;51.404;7.232;2024-01-30T02:26:56;11.17;;;7.63;;
2972;SDS011;1496;51.404;7.232;2024-01-30T02:29:22;18.40;;;7.50;;
2972;SDS011;1496;51.404;7.232;2024-01-30T02:31:48;13.23;;;7.93;;
2972;SDS011;1496;51.404;7.232;2024-01-30T02:34:14;11.37;;;7.50;;
2972;SDS011;1496;51.404;7.232;2024-01-30T02:36:43;12.13;;;8.00;;
2972;SDS011;1496;51.404;7.232;2024-01-30T02:39:09;15.13;;;7.87;;
2972;SDS011;1496;51.404;7.232;2024-01-30T02:41:34;15.57;;;7.90;;
2972;SDS011;1496;51.404;7.232;2024-01-30T02:44:01;10.87;;;7.30;;
2972;SDS011;1496;51.404;7.232;2024-01-30T02:46:29;13.73;;;7.30;;
2972;SDS011;1496;51.404;7.232;2024-01-30T02:48:55;11.77;;;8.00;;
2972;SDS011;1496;51.404;7.232;2024-01-30T02:51:21;15.77;;;8.50;;
2972;SDS011;1496;51.404;7.232;2024-01-30T02:53:46;11.10;;;6.90;;
2972;SDS011;1496;51.404;7.232;2024-01-30T02:56:12;11.43;;;8.43;;
2972;SDS011;1496;51.404;7.232;2024-01-30T02:58:39;17.10;;;8.67;;
2972;SDS011;1496;51.404;7.232;2024-01-30T03:01:05;10.77;;;6.70;;
2972;SDS011;1496;51.404;7.232;2024-01-30T03:03:31;8.53;;;7.10;;
2972;SDS011;1496;51.404;7.232;2024-01-30T03:05:59;7.37;;;6.10;;
2972;SDS011;1496;51.404;7.232;2024-01-30T03:08:24;8.90;;;6.57;;
2972;SDS011;1496;51.404;7.232;2024-01-30T03:10:50;11.63;;;8.00;;
2972;SDS011;1496;51.404;7.232;2024-01-30T03:13:16;9.07;;;7.03;;
2972;SDS011;1496;51.404;7.232;2024-01-30T03:15:42;14.17;;;7.20;;
2972;SDS011;1496;51.404;7.232;2024-01-30T03:18:08;14.33;;;6.97;;
2972;SDS011;1496;51.404;7.232;2024-01-30T03:20:33;10.70;;;7.20;;
2972;SDS011;1496;51.404;7.232;2024-01-30T03:23:00;17.40;;;7.50;;
2972;SDS011;1496;51.404;7.232;2024-01-30T03:25:26;9.97;;;6.73;;
2972;SDS011;1496;51.404;7.232;2024-01-30T03:27:51;11.27;;;8.10;;
2972;SDS011;1496;51.404;7.232;2024-01-30T03:30:17;10.70;;;7.17;;
2972;SDS011;1496;51.404;7.232;2024-01-30T03:32:43;10.43;;;6.97;;
2972;SDS011;1496;51.404;7.232;2024-01-30T03:35:09;8.27;;;5.60;;
2972;SDS011;1496;51.404;7.232;2024-01-30T03:37:35;9.20;;;6.80;;
2972;SDS011;1496;51.404;7.232;2024-01-30T03:40:02;8.93;;;6.67;;
2972;SDS011;1496;51.404;7.232;2024-01-30T03:42:28;12.40;;;7.13;;
2972;SDS011;1496;51.404;7.232;2024-01-30T03:44:54;10.33;;;7.40;;
2972;SDS011;1496;51.404;7.232;2024-01-30T03:47:24;11.57;;;6.77;;
2972;SDS011;1496;51.404;7.232;2024-01-30T03:49:50;12.47;;;7.43;;
2972;SDS011;1496;51.404;7.232;2024-01-30T03:52:15;9.07;;;6.33;;
2972;SDS011;1496;51.404;7.232;2024-01-30T03:54:41;10.60;;;6.93;;
2972;SDS011;1496;51.404;7.232;2024-01-30T03:57:06;10.33;;;6.87;;
2972;SDS011;1496;51.404;7.232;2024-01-30T03:59:32;9.00;;;6.17;;
2972;SDS011;1496;51.404;7.232;2024-01-30T04:01:58;11.13;;;6.40;;
2972;SDS011;1496;51.404;7.232;2024-01-30T04:04:23;11.90;;;7.07;;
2972;SDS011;1496;51.404;7.232;2024-01-30T04:06:49;9.87;;;6.37;;
2972;SDS011;1496;51.404;7.232;2024-01-30T04:09:14;9.30;;;6.13;;
2972;SDS011;1496;51.404;7.232;2024-01-30T04:11:40;8.50;;;6.97;;
2972;SDS011;1496;51.404;7.232;2024-01-30T04:14:07;10.47;;;5.90;;
2972;SDS011;1496;51.404;7.232;2024-01-30T04:16:34;12.40;;;6.43;;
2972;SDS011;1496;51.404;7.232;2024-01-30T04:18:59;10.07;;;6.20;;
2972;SDS011;1496;51.404;7.232;2024-01-30T04:21:25;9.97;;;6.70;;
2972;SDS011;1496;51.404;7.232;2024-01-30T04:23:51;7.07;;;5.67;;
2972;SDS011;1496;51.404;7.232;2024-01-30T04:26:17;12.50;;;6.40;;
2972;SDS011;1496;51.404;7.232;2024-01-30T04:28:46;7.83;;;5.60;;
2972;SDS011;1496;51.404;7.232;2024-01-30T04:31:11;9.13;;;5.90;;
2972;SDS011;1496;51.404;7.232;2024-01-30T04:33:37;9.27;;;6.57;;
2972;SDS011;1496;51.404;7.232;2024-01-30T04:36:03;9.10;;;5.53;;
2972;SDS011;1496;51.404;7.232;2024-01-30T04:38:30;12.90;;;6.30;;
2972;SDS011;1496;51.404;7.232;2024-01-30T04:40:56;11.43;;;6.00;;
2972;SDS011;1496;51.404;7.232;2024-01-30T04:43:22;7.83;;;6.23;;
2972;SDS011;1496;51.404;7.232;2024-01-30T04:45:47;11.47;;;6.07;;
2972;SDS011;1496;51.404;7.232;2024-01-30T04:48:13;9.60;;;5.43;;
2972;SDS011;1496;51.404;7.232;2024-01-30T04:50:39;8.33;;;6.37;;
2972;SDS011;1496;51.404;7.232;2024-01-30T04:53:05;10.80;;;6.23;;
2972;SDS011;1496;51.404;7.232;2024-01-30T04:55:30;14.37;;;6.73;;
2972;SDS011;1496;51.404;7.232;2024-01-30T04:57:56;8.67;;;5.70;;
2972;SDS011;1496;51.404;7.232;2024-01-30T05:00:21;7.90;;;5.10;;
2972;SDS011;1496;51.404;7.232;2024-01-30T05:02:47;8.93;;;5.77;;
2972;SDS011;1496;51.404;7.232;2024-01-30T05:05:13;9.20;;;6.13;;
2972;SDS011;1496;51.404;7.232;2024-01-30T05:07:40;9.97;;;5.90;;
2972;SDS011;1496;51.404;7.232;2024-01-30T05:10:08;8.03;;;5.80;;
2972;SDS011;1496;51.404;7.232;2024-01-30T05:12:34;8.57;;;5.13;;
2972;SDS011;1496;51.404;7.232;2024-01-30T05:15:00;14.80;;;5.67;;
2972;SDS011;1496;51.404;7.232;2024-01-30T05:17:25;8.60;;;5.57;;
2972;SDS011;1496;51.404;7.232;2024-01-30T05:19:51;15.80;;;7.03;;
2972;SDS011;1496;51.404;7.232;2024-01-30T05:22:16;11.67;;;5.80;;
2972;SDS011;1496;51.404;7.232;2024-01-30T05:24:43;10.23;;;6.03;;
2972;SDS011;1496;51.404;7.232;2024-01-30T05:27:09;7.97;;;5.37;;
2972;SDS011;1496;51.404;7.232;2024-01-30T05:29:35;10.13;;;6.67;;
2972;SDS011;1496;51.404;7.232;2024-01-30T05:32:01;9.10;;;5.77;;
2972;SDS011;1496;51.404;7.232;2024-01-30T05:34:27;9.47;;;6.20;;
2972;SDS011;1496;51.404;7.232;2024-01-30T05:36:52;8.90;;;5.80;;
2972;SDS011;1496;51.404;7.232;2024-01-30T05:39:18;9.20;;;5.33;;
2972;SDS011;1496;51.404;7.232;2024-01-30T05:41:44;7.20;;;5.60;;
2972;SDS011;1496;51.404;7.232;2024-01-30T05:44:09;8.10;;;6.00;;
2972;SDS011;1496;51.404;7.232;2024-01-30T05:46:35;13.30;;;6.70;;
2972;SDS011;1496;51.404;7.232;2024-01-30T05:49:01;11.00;;;7.00;;
2972;SDS011;1496;51.404;7.232;2024-01-30T05:51:26;9.07;;;5.90;;
2972;SDS011;1496;51.404;7.232;2024-01-30T05:53:53;7.87;;;5.67;;
2972;SDS011;1496;51.404;7.232;2024-01-30T05:56:19;7.80;;;5.93;;
2972;SDS011;1496;51.404;7.232;2024-01-30T05:58:45;12.47;;;6.93;;
2972;SDS011;1496;51.404;7.232;2024-01-30T06:01:10;11.20;;;6.40;;
2972;SDS011;1496;51.404;7.232;2024-01-30T06:03:36;7.70;;;5.10;;
2972;SDS011;1496;51.404;7.232;2024-01-30T06:06:04;7.30;;;5.80;;
2972;SDS011;1496;51.404;7.232;2024-01-30T06:08:30;10.30;;;6.30;;
2972;SDS011;1496;51.404;7.232;2024-01-30T06:10:57;9.20;;;5.87;;
2972;SDS011;1496;51.404;7.232;2024-01-30T06:13:23;6.40;;;4.33;;
2972;SDS011;1496;51.404;7.232;2024-01-30T06:15:48;9.57;;;5.60;;
2972;SDS011;1496;51.404;7.232;2024-01-30T06:18:14;7.00;;;5.33;;
2972;SDS011;1496;51.404;7.232;2024-01-30T06:20:39;7.93;;;4.80;;
2972;SDS011;1496;51.404;7.232;2024-01-30T06:23:05;9.60;;;5.83;;
2972;SDS011;1496;51.404;7.232;2024-01-30T06:25:31;13.27;;;6.10;;
2972;SDS011;1496;51.404;7.232;2024-01-30T06:27:57;7.57;;;5.40;;
2972;SDS011;1496;51.404;7.232;2024-01-30T06:30:23;11.70;;;6.10;;
2972;SDS011;1496;51.404;7.232;2024-01-30T06:32:48;10.00;;;5.50;;
2972;SDS011;1496;51.404;7.232;2024-01-30T06:35:14;9.33;;;5.73;;
2972;SDS011;1496;51.404;7.232;2024-01-30T06:37:39;7.70;;;5.83;;
2972;SDS011;1496;51.404;7.232;2024-01-30T06:40:05;10.80;;;5.77;;
2972;SDS011;1496;51.404;7.232;2024-01-30T06:42:32;7.70;;;5.67;;
2972;SDS011;1496;51.404;7.232;2024-01-30T06:44:57;10.07;;;5.90;;
2972;SDS011;1496;51.404;7.232;2024-01-30T06:47:23;6.23;;;5.40;;
2972;SDS011;1496;51.404;7.232;2024-01-30T06:49:49;7.63;;;5.40;;
2972;SDS011;1496;51.404;7.232;2024-01-30T06:52:14;8.00;;;5.80;;
2972;SDS011;1496;51.404;7.232;2024-01-30T06:54:40;8.23;;;5.50;;
2972;SDS011;1496;51.404;7.232;2024-01-30T06:57:06;8.10;;;6.13;;
2972;SDS011;1496;51.404;7.232;2024-01-30T06:59:36;12.20;;;6.10;;
2972;SDS011;1496;51.404;7.232;2024-01-30T07:02:06;9.20;;;6.70;;
2972;SDS011;1496;51.404;7.232;2024-01-30T07:04:32;15.67;;;5.60;;
2972;SDS011;1496;51.404;7.232;2024-01-30T07:06:58;9.03;;;5.93;;
2972;SDS011;1496;51.404;7.232;2024-01-30T07:09:24;10.43;;;5.60;;
2972;SDS011;1496;51.404;7.232;2024-01-30T07:11:50;11.07;;;5.90;;
2972;SDS011;1496;51.404;7.232;2024-01-30T07:14:16;8.53;;;5.63;;
2972;SDS011;1496;51.404;7.232;2024-01-30T07:16:42;7.33;;;5.00;;
2972;SDS011;1496;51.404;7.232;2024-01-30T07:19:08;8.87;;;6.27;;
2972;SDS011;1496;51.404;7.232;2024-01-30T07:21:34;12.63;;;6.70;;
2972;SDS011;1496;51.404;7.232;2024-01-30T07:24:00;8.33;;;5.93;;
2972;SDS011;1496;51.404;7.232;2024-01-30T07:26:26;11.90;;;5.70;;
2972;SDS011;1496;51.404;7.232;2024-01-30T07:28:51;7.70;;;5.17;;
2972;SDS011;1496;51.404;7.232;2024-01-30T07:31:17;12.90;;;5.60;;
2972;SDS011;1496;51.404;7.232;2024-01-30T07:33:45;7.00;;;5.27;;
2972;SDS011;1496;51.404;7.232;2024-01-30T07:36:11;10.33;;;5.17;;
2972;SDS011;1496;51.404;7.232;2024-01-30T07:38:37;12.00;;;5.87;;
2972;SDS011;1496;51.404;7.232;2024-01-30T07:41:02;8.10;;;5.27;;
2972;SDS011;1496;51.404;7.232;2024-01-30T07:43:28;10.30;;;5.93;;
2972;SDS011;1496;51.404;7.232;2024-01-30T07:45:54;7.10;;;5.30;;
2972;SDS011;1496;51.404;7.232;2024-01-30T07:48:19;6.93;;;5.37;;
2972;SDS011;1496;51.404;7.232;2024-01-30T07:50:45;8.67;;;5.53;;
2972;SDS011;1496;51.404;7.232;2024-01-30T07:53:10;8.80;;;5.33;;
2972;SDS011;1496;51.404;7.232;2024-01-30T07:55:36;11.50;;;5.70;;
2972;SDS011;1496;51.404;7.232;2024-01-30T07:58:02;9.13;;;5.77;;
2972;SDS011;1496;51.404;7.232;2024-01-30T08:00:29;10.77;;;5.70;;
2972;SDS011;1496;51.404;7.232;2024-01-30T08:02:55;8.30;;;5.23;;
2972;SDS011;1496;51.404;7.232;2024-01-30T08:05:21;11.00;;;5.60;;
2972;SDS011;1496;51.404;7.232;2024-01-30T08:07:49;13.60;;;6.20;;
2972;SDS011;1496;51.404;7.232;2024-01-30T08:10:15;8.87;;;5.57;;
2972;SDS011;1496;51.404;7.232;2024-01-30T08:12:43;10.60;;;5.13;;
2972;SDS011;1496;51.404;7.232;2024-01-30T08:15:09;10.77;;;5.37;;
2972;SDS011;1496;51.404;7.232;2024-01-30T08:17:35;7.37;;;5.30;;
2972;SDS011;1496;51.404;7.232;2024-01-30T08:20:01;7.93;;;5.40;;
2972;SDS011;1496;51.404;7.232;2024-01-30T08:22:28;8.40;;;4.47;;
2972;SDS011;1496;51.404;7.232;2024-01-30T08:24:54;16.30;;;5.23;;
2972;SDS011;1496;51.404;7.232;2024-01-30T08:27:19;9.40;;;5.07;;
2972;SDS011;1496;51.404;7.232;2024-01-30T08:29:45;15.10;;;6.10;;
2972;SDS011;1496;51.404;7.232;2024-01-30T08:32:11;6.67;;;4.93;;
2972;SDS011;1496;51.404;7.232;2024-01-30T08:34:37;18.20;;;6.13;;
2972;SDS011;1496;51.404;7.232;2024-01-30T08:37:02;12.23;;;5.43;;
2972;SDS011;1496;51.404;7.232;2024-01-30T08:39:28;7.60;;;5.60;;
2972;SDS011;1496;51.404;7.232;2024-01-30T08:41:54;7.77;;;5.57;;
2972;SDS011;1496;51.404;7.232;2024-01-30T08:44:20;8.20;;;5.50;;
2972;SDS011;1496;51.404;7.232;2024-01-30T08:46:45;9.03;;;4.80;;
2972;SDS011;1496;51.404;7.232;2024-01-30T08:49:13;7.90;;;5.27;;
2972;SDS011;1496;51.404;7.232;2024-01-30T08:51:42;5.90;;;4.30;;
2972;SDS011;1496;51.404;7.232;2024-01-30T08:54:07;9.87;;;5.30;;
2972;SDS011;1496;51.404;7.232;2024-01-30T08:56:33;7.80;;;5.23;;
2972;SDS011;1496;51.404;7.232;2024-01-30T08:58:59;8.87;;;5.00;;
2972;SDS011;1496;51.404;7.232;2024-01-30T09:01:24;13.10;;;5.20;;
2972;SDS011;1496;51.404;7.232;2024-01-30T09:03:50;9.23;;;4.90;;
2972;SDS011;1496;51.404;7.232;2024-01-30T09:06:16;6.00;;;4.73;;
2972;SDS011;1496;51.404;7.232;2024-01-30T09:08:42;10.70;;;4.83;;
2972;SDS011;1496;51.404;7.232;2024-01-30T09:11:13;9.60;;;5.40;;
2972;SDS011;1496;51.404;7.232;2024-01-30T09:13:40;11.60;;;5.50;;
2972;SDS011;1496;51.404;7.232;2024-01-30T09:16:06;11.67;;;5.40;;
2972;SDS011;1496;51.404;7.232;2024-01-30T09:18:32;7.07;;;4.93;;
2972;SDS011;1496;51.404;7.232;2024-01-30T09:20:58;9.10;;;5.00;;
2972;SDS011;1496;51.404;7.232;2024-01-30T09:23:24;9.77;;;5.57;;
2972;SDS011;1496;51.404;7.232;2024-01-30T09:25:50;7.67;;;5.10;;
2972;SDS011;1496;51.404;7.232;2024-01-30T09:28:19;8.03;;;5.37;;
2972;SDS011;1496;51.404;7.232;2024-01-30T09:30:44;8.80;;;5.20;;
2972;SDS011;1496;51.404;7.232;2024-01-30T09:33:10;9.97;;;5.77;;
2972;SDS011;1496;51.404;7.232;2024-01-30T09:35:36;9.77;;;5.23;;
2972;SDS011;1496;51.404;7.232;2024-01-30T09:38:01;6.47;;;4.60;;
2972;SDS011;1496;51.404;7.232;2024-01-30T09:40:27;9.00;;;5.17;;
2972;SDS011;1496;51.404;7.232;2024-01-30T09:42:54;6.40;;;5.50;;
2972;SDS011;1496;51.404;7.232;2024-01-30T09:45:23;8.33;;;4.33;;
2972;SDS011;1496;51.404;7.232;2024-01-30T09:47:50;9.50;;;4.70;;
2972;SDS011;1496;51.404;7.232;2024-01-30T09:50:16;11.30;;;5.20;;
2972;SDS011;1496;51.404;7.232;2024-01-30T09:52:42;12.77;;;4.53;;
2972;SDS011;1496;51.404;7.232;2024-01-30T09:55:12;8.47;;;4.83;;
2972;SDS011;1496;51.404;7.232;2024-01-30T09:57:38;5.57;;;4.90;;
2972;SDS011;1496;51.404;7.232;2024-01-30T10:00:05;7.80;;;5.37;;
2972;SDS011;1496;51.404;7.232;2024-01-30T10:02:39;5.37;;;4.47;;
2972;SDS011;1496;51.404;7.232;2024-01-30T10:05:05;7.47;;;4.90;;
2972;SDS011;1496;51.404;7.232;2024-01-30T10:07:33;8.77;;;5.20;;
2972;SDS011;1496;51.404;7.232;2024-01-30T10:09:59;7.80;;;5.27;;
2972;SDS011;1496;51.404;7.232;2024-01-30T10:12:29;9.03;;;5.30;;
2972;SDS011;1496;51.404;7.232;2024-01-30T10:14:55;6.50;;;4.40;;
2972;SDS011;1496;51.404;7.232;2024-01-30T10:17:24;6.90;;;4.20;;
2972;SDS011;1496;51.404;7.232;2024-01-30T10:19:50;6.53;;;4.87;;
2972;SDS011;1496;51.404;7.232;2024-01-30T10:22:16;6.77;;;4.90;;
2972;SDS011;1496;51.404;7.232;2024-01-30T10:24:43;9.00;;;5.40;;
2972;SDS011;1496;51.404;7.232;2024-01-30T10:27:10;8.47;;;4.93;;
2972;SDS011;1496;51.404;7.232;2024-01-30T10:29:36;7.50;;;4.23;;
2972;SDS011;1496;51.404;7.232;2024-01-30T10:32:03;6.70;;;4.03;;
2972;SDS011;1496;51.404;7.232;2024-01-30T10:34:29;8.13;;;4.80;;
2972;SDS011;1496;51.404;7.232;2024-01-30T10:36:59;7.23;;;4.20;;
2972;SDS011;1496;51.404;7.232;2024-01-30T10:39:32;7.97;;;5.10;;
2972;SDS011;1496;51.404;7.232;2024-01-30T10:42:03;11.27;;;4.43;;
2972;SDS011;1496;51.404;7.232;2024-01-30T10:44:34;7.20;;;3.73;;
2972;SDS011;1496;51.404;7.232;2024-01-30T10:47:06;5.60;;;4.00;;
2972;SDS011;1496;51.404;7.232;2024-01-30T10:49:38;5.47;;;4.43;;
2972;SDS011;1496;51.404;7.232;2024-01-30T10:52:05;7.83;;;4.10;;
2972;SDS011;1496;51.404;7.232;2024-01-30T10:54:33;6.90;;;4.10;;
2972;SDS011;1496;51.404;7.232;2024-01-30T10:56:59;6.20;;;5.30;;
2972;SDS011;1496;51.404;7.232;2024-01-30T10:59:28;8.47;;;4.53;;
2972;SDS011;1496;51.404;7.232;2024-01-30T11:01:56;6.00;;;4.10;;
2972;SDS011;1496;51.404;7.232;2024-01-30T11:04:24;8.07;;;4.40;;
2972;SDS011;1496;51.404;7.232;2024-01-30T11:06:50;6.80;;;4.43;;
2972;SDS011;1496;51.404;7.232;2024-01-30T11:09:17;10.50;;;4.90;;
2972;SDS011;1496;51.404;7.232;2024-01-30T11:11:55;15.70;;;5.33;;
2972;SDS011;1496;51.404;7.232;2024-01-30T11:14:25;6.20;;;4.10;;
2972;SDS011;1496;51.404;7.232;2024-01-30T11:16:52;9.40;;;5.30;;
2972;SDS011;1496;51.404;7.232;2024-01-30T11:19:24;7.60;;;5.73;;
2972;SDS011;1496;51.404;7.232;2024-01-30T11:21:51;8.30;;;4.80;;
2972;SDS011;1496;51.404;7.232;2024-01-30T11:24:20;9.53;;;5.57;;
2972;SDS011;1496;51.404;7.232;2024-01-30T11:26:48;10.80;;;5.43;;
2972;SDS011;1496;51.404;7.232;2024-01-30T11:29:28;8.77;;;4.80;;
2972;SDS011;1496;51.404;7.232;2024-01-30T11:31:54;7.60;;;5.07;;
2972;SDS011;1496;51.404;7.232;2024-01-30T11:34:20;12.17;;;6.20;;
2972;SDS011;1496;51.404;7.232;2024-01-30T11:36:55;8.73;;;4.90;;
2972;SDS011;1496;51.404;7.232;2024-01-30T11:39:26;7.50;;;4.43;;
2972;SDS011;1496;51.404;7.232;2024-01-30T11:41:52;9.47;;;4.50;;
2972;SDS011;1496;51.404;7.232;2024-01-30T11:44:19;7.07;;;4.33;;
2972;SDS011;1496;51.404;7.232;2024-01-30T11:46:46;8.57;;;4.70;;
2972;SDS011;1496;51.404;7.232;2024-01-30T11:49:15;11.60;;;5.20;;
2972;SDS011;1496;51.404;7.232;2024-01-30T11:51:42;12.80;;;4.83;;
2972;SDS011;1496;51.404;7.232;2024-01-30T11:54:08;10.63;;;5.07;;
2972;SDS011;1496;51.404;7.232;2024-01-30T11:56:34;8.40;;;4.80;;
2972;SDS011;1496;51.404;7.232;2024-01-30T11:59:01;9.77;;;4.90;;
2972;SDS011;1496;51.404;7.232;2024-01-30T12:01:27;8.73;;;4.73;;
2972;SDS011;1496;51.404;7.232;2024-01-30T12:03:53;6.33;;;5.33;;
2972;SDS011;1496;51.404;7.232;2024-01-30T12:06:19;8.13;;;4.63;;
2972;SDS011;1496;51.404;7.232;2024-01-30T12:08:57;12.23;;;5.73;;
2972;SDS011;1496;51.404;7.232;2024-01-30T12:11:24;9.00;;;5.10;;
2972;SDS011;1496;51.404;7.232;2024-01-30T12:13:53;8.10;;;4.87;;
2972;SDS011;1496;51.404;7.232;2024-01-30T12:16:19;11.10;;;5.40;;
2972;SDS011;1496;51.404;7.232;2024-01-30T12:18:45;8.60;;;4.90;;
2972;SDS011;1496;51.404;7.232;2024-01-30T12:21:12;9.00;;;5.67;;
2972;SDS011;1496;51.404;7.232;2024-01-30T12:23:41;10.80;;;5.67;;
2972;SDS011;1496;51.404;7.232;2024-01-30T12:26:06;12.23;;;6.10;;
2972;SDS011;1496;51.404;7.232;2024-01-30T12:28:32;10.17;;;5.70;;
2972;SDS011;1496;51.404;7.232;2024-01-30T12:31:02;10.30;;;6.43;;
2972;SDS011;1496;51.404;7.232;2024-01-30T12:33:28;9.27;;;5.70;;
2972;SDS011;1496;51.404;7.232;2024-01-30T12:36:01;11.10;;;6.37;;
2972;SDS011;1496;51.404;7.232;2024-01-30T12:38:27;10.30;;;5.30;;
2972;SDS011;1496;51.404;7.232;2024-01-30T12:40:56;10.67;;;6.27;;
2972;SDS011;1496;51.404;7.232;2024-01-30T12:43:26;13.93;;;6.27;;
2972;SDS011;1496;51.404;7.232;2024-01-30T12:45:55;14.57;;;5.90;;
2972;SDS011;1496;51.404;7.232;2024-01-30T12:48:20;9.97;;;5.67;;
2972;SDS011;1496;51.404;7.232;2024-01-30T12:50:46;10.00;;;5.03;;
2972;SDS011;1496;51.404;7.232;2024-01-30T12:53:12;9.73;;;5.97;;
2972;SDS011;1496;51.404;7.232;2024-01-30T12:55:38;18.53;;;7.10;;
2972;SDS011;1496;51.404;7.232;2024-01-30T12:58:03;14.63;;;6.03;;
2972;SDS011;1496;51.404;7.232;2024-01-30T13:00:29;12.70;;;6.30;;
2972;SDS011;1496;51.404;7.232;2024-01-30T13:02:55;16.40;;;6.60;;
2972;SDS011;1496;51.404;7.232;2024-01-30T13:05:21;13.60;;;7.03;;
2972;SDS011;1496;51.404;7.232;2024-01-30T13:07:47;7.87;;;5.60;;
2972;SDS011;1496;51.404;7.232;2024-01-30T13:10:12;13.33;;;6.37;;
2972;SDS011;1496;51.404;7.232;2024-01-30T13:12:38;14.47;;;7.07;;
2972;SDS011;1496;51.404;7.232;2024-01-30T13:15:04;13.17;;;6.90;;
2972;SDS011;1496;51.404;7.232;2024-01-30T13:17:31;12.47;;;6.20;;
2972;SDS011;1496;51.404;7.232;2024-01-30T13:19:57;13.97;;;6.17;;
2972;SDS011;1496;51.404;7.232;2024-01-30T13:22:23;11.70;;;7.83;;
2972;SDS011;1496;51.404;7.232;2024-01-30T13:24:49;12.60;;;5.73;;
2972;SDS011;1496;51.404;7.232;2024-01-30T13:27:15;11.97;;;5.83;;
2972;SDS011;1496;51.404;7.232;2024-01-30T13:29:41;12.53;;;6.83;;
2972;SDS011;1496;51.404;7.232;2024-01-30T13:32:06;11.07;;;6.53;;
2972;SDS011;1496;51.404;7.232;2024-01-30T13:34:32;16.13;;;7.03;;
2972;SDS011;1496;51.404;7.232;2024-01-30T13:36:59;8.67;;;5.73;;
2972;SDS011;1496;51.404;7.232;2024-01-30T13:39:24;11.30;;;6.73;;
2972;SDS011;1496;51.404;7.232;2024-01-30T13:41:50;11.37;;;6.90;;
2972;SDS011;1496;51.404;7.232;2024-01-30T13:44:16;13.13;;;5.90;;
2972;SDS011;1496;51.404;7.232;2024-01-30T13:46:42;9.00;;;6.20;;
2972;SDS011;1496;51.404;7.232;2024-01-30T13:49:08;13.17;;;5.90;;
2972;SDS011;1496;51.404;7.232;2024-01-30T13:51:34;15.33;;;6.90;;
2972;SDS011;1496;51.404;7.232;2024-01-30T13:53:59;9.10;;;6.47;;
2972;SDS011;1496;51.404;7.232;2024-01-30T13:56:25;13.90;;;6.50;;
2972;SDS011;1496;51.404;7.232;2024-01-30T13:58:52;11.33;;;6.67;;
2972;SDS011;1496;51.404;7.232;2024-01-30T14:01:18;10.27;;;6.37;;
2972;SDS011;1496;51.404;7.232;2024-01-30T14:03:43;7.20;;;5.90;;
2972;SDS011;1496;51.404;7.232;2024-01-30T14:06:09;13.63;;;6.90;;
2972;SDS011;1496;51.404;7.232;2024-01-30T14:08:35;10.47;;;7.57;;
2972;SDS011;1496;51.404;7.232;2024-01-30T14:11:01;10.87;;;6.43;;
2972;SDS011;1496;51.404;7.232;2024-01-30T14:13:27;9.00;;;6.23;;
2972;SDS011;1496;51.404;7.232;2024-01-30T14:15:52;10.90;;;6.57;;
2972;SDS011;1496;51.404;7.232;2024-01-30T14:18:19;11.33;;;6.10;;
2972;SDS011;1496;51.404;7.232;2024-01-30T14:20:46;10.73;;;6.33;;
2972;SDS011;1496;51.404;7.232;2024-01-30T14:23:14;10.03;;;6.20;;
2972;SDS011;1496;51.404;7.232;2024-01-30T14:25:42;15.57;;;8.00;;
2972;SDS011;1496;51.404;7.232;2024-01-30T14:28:07;11.00;;;6.90;;
2972;SDS011;1496;51.404;7.232;2024-01-30T14:30:33;13.27;;;7.20;;
2972;SDS011;1496;51.404;7.232;2024-01-30T14:32:58;17.37;;;6.60;;
2972;SDS011;1496;51.404;7.232;2024-01-30T14:35:24;12.50;;;6.87;;
2972;SDS011;1496;51.404;7.232;2024-01-30T14:37:50;13.63;;;6.40;;
2972;SDS011;1496;51.404;7.232;2024-01-30T14:40:17;7.90;;;6.90;;
2972;SDS011;1496;51.404;7.232;2024-01-30T14:42:43;10.17;;;6.33;;
2972;SDS011;1496;51.404;7.232;2024-01-30T14:45:09;9.57;;;6.77;;
2972;SDS011;1496;51.404;7.232;2024-01-30T14:47:34;14.10;;;7.33;;
2972;SDS011;1496;51.404;7.232;2024-01-30T14:50:01;9.17;;;6.70;;
2972;SDS011;1496;51.404;7.232;2024-01-30T14:52:27;12.23;;;6.90;;
2972;SDS011;1496;51.404;7.232;2024-01-30T14:54:52;10.93;;;6.30;;
2972;SDS011;1496;51.404;7.232;2024-01-30T14:57:18;12.10;;;7.40;;
2972;SDS011;1496;51.404;7.232;2024-01-30T14:59:44;12.43;;;7.07;;
2972;SDS011;1496;51.404;7.232;2024-01-30T15:02:10;11.47;;;7.00;;
2972;SDS011;1496;51.404;7.232;2024-01-30T15:04:36;13.27;;;6.80;;